createdAt,value
2018-07-27T00:02:08.861Z,5.40
2018-07-27T00:04:37.993Z,5.23
2018-07-27T00:07:07.100Z,4.93
2018-07-27T00:09:36.078Z,5.53
2018-07-27T00:12:05.178Z,5.23
2018-07-27T00:14:34.193Z,5.27
2018-07-27T00:17:03.210Z,5.10
2018-07-27T00:19:32.246Z,4.70
2018-07-27T00:22:01.233Z,4.80
2018-07-27T00:24:30.279Z,4.30
2018-07-27T00:26:59.337Z,5.40
2018-07-27T00:29:28.376Z,5.40
2018-07-27T00:31:57.448Z,5.80
2018-07-27T00:34:26.442Z,5.60
2018-07-27T00:36:55.497Z,5.47
2018-07-27T00:39:24.089Z,4.80
2018-07-27T00:41:53.078Z,4.90
2018-07-27T00:44:22.142Z,5.20
2018-07-27T00:46:51.137Z,4.90
2018-07-27T00:49:20.161Z,4.53
2018-07-27T00:51:49.197Z,4.73
2018-07-27T00:54:18.212Z,4.40
2018-07-27T00:56:47.253Z,5.00
2018-07-27T00:59:16.244Z,4.73
2018-07-27T01:01:45.261Z,4.63
2018-07-27T01:04:14.305Z,4.40
2018-07-27T01:06:43.366Z,4.27
2018-07-27T01:09:12.557Z,5.40
2018-07-27T01:11:41.562Z,4.97
2018-07-27T01:14:10.613Z,5.60
2018-07-27T01:16:39.657Z,5.27
2018-07-27T01:19:08.641Z,4.73
2018-07-27T01:21:37.731Z,5.37
2018-07-27T01:24:06.756Z,4.90
2018-07-27T01:26:35.805Z,5.47
2018-07-27T01:29:04.918Z,4.60
2018-07-27T01:31:33.971Z,4.73
2018-07-27T01:34:02.541Z,4.87
2018-07-27T01:36:31.521Z,4.97
2018-07-27T01:39:00.524Z,4.37
2018-07-27T01:41:29.560Z,4.33
2018-07-27T01:43:58.548Z,4.70
2018-07-27T01:46:27.649Z,4.43
2018-07-27T01:48:56.697Z,4.83
2018-07-27T01:51:25.676Z,4.93
2018-07-27T01:53:54.712Z,5.03
2018-07-27T01:56:23.724Z,4.43
2018-07-27T01:58:52.765Z,5.13
2018-07-27T02:01:21.786Z,5.00
2018-07-27T02:03:50.790Z,5.63
2018-07-27T02:06:19.870Z,4.93
2018-07-27T02:08:48.965Z,5.10
2018-07-27T02:11:18.130Z,4.97
2018-07-27T02:13:47.218Z,5.13
2018-07-27T02:16:16.214Z,4.83
2018-07-27T02:18:45.265Z,5.17
2018-07-27T02:21:14.264Z,5.57
2018-07-27T02:23:44.056Z,4.93
2018-07-27T02:26:13.153Z,5.07
2018-07-27T02:28:42.161Z,4.90
2018-07-27T02:31:11.189Z,5.00
2018-07-27T02:33:40.188Z,4.77
2018-07-27T02:36:09.241Z,5.40
2018-07-27T02:38:38.281Z,4.70
2018-07-27T02:41:07.321Z,5.17
2018-07-27T02:43:36.356Z,5.77
2018-07-27T02:46:05.406Z,4.63
2018-07-27T02:48:34.450Z,4.90
2018-07-27T02:51:03.545Z,5.33
2018-07-27T02:53:32.661Z,4.73
2018-07-27T02:56:01.827Z,5.43
2018-07-27T02:58:31.077Z,5.37
2018-07-27T03:01:00.377Z,4.93
2018-07-27T03:03:29.147Z,5.10
2018-07-27T03:05:58.794Z,5.33
2018-07-27T03:08:28.134Z,5.43
2018-07-27T03:10:57.416Z,5.30
2018-07-27T03:13:26.635Z,5.33
2018-07-27T03:15:55.933Z,5.53
2018-07-27T03:18:25.140Z,5.13
2018-07-27T03:20:54.398Z,5.70
2018-07-27T03:23:23.676Z,5.17
2018-07-27T03:25:52.954Z,4.90
2018-07-27T03:28:22.090Z,6.27
2018-07-27T03:30:51.433Z,5.30
2018-07-27T03:33:20.769Z,5.20
2018-07-27T03:35:49.934Z,6.20
2018-07-27T03:38:19.321Z,5.40
2018-07-27T03:40:48.553Z,5.43
2018-07-27T03:43:17.607Z,5.57
2018-07-27T03:45:46.637Z,4.80
2018-07-27T03:48:15.630Z,5.70
2018-07-27T03:50:44.695Z,5.03
2018-07-27T03:53:13.702Z,5.10
2018-07-27T03:55:42.744Z,5.40
2018-07-27T03:58:11.781Z,6.33
2018-07-27T04:00:40.805Z,5.73
2018-07-27T04:03:09.880Z,5.50
2018-07-27T04:05:38.889Z,5.00
2018-07-27T04:08:07.932Z,4.93
2018-07-27T04:10:36.957Z,5.07
2018-07-27T04:13:06.106Z,5.90
2018-07-27T04:15:35.112Z,5.37
2018-07-27T04:18:04.121Z,5.87
2018-07-27T04:20:33.172Z,5.23
2018-07-27T04:23:02.235Z,5.57
2018-07-27T04:25:31.398Z,5.60
2018-07-27T04:28:00.636Z,5.73
2018-07-27T04:30:29.967Z,4.80
2018-07-27T04:32:59.242Z,5.20
2018-07-27T04:35:28.550Z,6.27
2018-07-27T04:37:57.739Z,5.77
2018-07-27T04:55:02.366Z,5.47
2018-07-27T04:57:31.766Z,5.47
2018-07-27T05:00:01.004Z,6.67
2018-07-27T05:02:30.297Z,6.00
2018-07-27T05:04:59.598Z,5.93
2018-07-27T05:07:28.820Z,6.50
2018-07-27T05:09:58.078Z,5.67
2018-07-27T05:12:27.325Z,5.90
2018-07-27T05:14:56.514Z,5.60
2018-07-27T05:17:25.794Z,6.80
2018-07-27T05:19:55.122Z,5.27
2018-07-27T05:22:24.335Z,5.93
2018-07-27T05:24:53.931Z,5.30
2018-07-27T05:27:23.269Z,6.40
2018-07-27T05:29:52.580Z,5.00
2018-07-27T05:32:21.849Z,5.57
2018-07-27T05:34:51.133Z,5.67
2018-07-27T05:37:20.405Z,5.83
2018-07-27T05:42:46.064Z,5.40
2018-07-27T05:48:08.585Z,6.03
2018-07-27T05:50:37.819Z,5.53
2018-07-27T05:53:14.841Z,6.23
2018-07-27T05:55:44.477Z,6.47
2018-07-27T05:58:14.056Z,6.23
2018-07-27T06:00:43.387Z,5.40
2018-07-27T06:03:12.951Z,6.10
2018-07-27T06:05:42.190Z,5.87
2018-07-27T06:08:11.482Z,6.17
2018-07-27T06:10:40.725Z,6.07
2018-07-27T06:13:10.154Z,6.07
2018-07-27T06:15:39.473Z,6.03
2018-07-27T06:18:08.973Z,5.63
2018-07-27T06:20:38.105Z,6.10
2018-07-27T06:23:07.416Z,5.80
2018-07-27T06:25:36.708Z,5.30
2018-07-27T06:28:06.174Z,6.00
2018-07-27T06:30:35.448Z,6.17
2018-07-27T06:33:04.700Z,6.27
2018-07-27T06:35:33.954Z,5.43
2018-07-27T06:38:12.805Z,6.00
2018-07-27T06:40:42.010Z,6.73
2018-07-27T06:43:11.184Z,6.40
2018-07-27T06:45:40.501Z,6.43
2018-07-27T06:48:13.735Z,6.60
2018-07-27T06:50:44.046Z,6.27
2018-07-27T06:53:13.324Z,6.20
2018-07-27T06:55:42.761Z,6.33
2018-07-27T06:58:12.002Z,6.77
2018-07-27T07:00:41.422Z,5.27
2018-07-27T07:03:10.736Z,5.83
2018-07-27T07:05:39.452Z,6.37
2018-07-27T07:08:08.665Z,6.87
2018-07-27T07:10:37.834Z,6.53
2018-07-27T07:13:07.081Z,6.53
2018-07-27T07:15:36.337Z,6.17
2018-07-27T07:18:05.838Z,5.83
2018-07-27T07:20:34.882Z,6.43
2018-07-27T07:23:04.043Z,6.10
2018-07-27T07:25:33.328Z,5.93
2018-07-27T07:28:02.522Z,6.03
2018-07-27T07:30:31.706Z,6.13
2018-07-27T07:33:00.908Z,7.03
2018-07-27T07:35:30.078Z,5.83
2018-07-27T07:37:59.306Z,6.37
2018-07-27T07:40:28.596Z,6.47
2018-07-27T07:42:57.875Z,6.50
2018-07-27T07:45:27.109Z,6.17
2018-07-27T07:47:56.280Z,7.23
2018-07-27T07:50:25.509Z,6.43
2018-07-27T07:52:54.677Z,6.60
2018-07-27T07:55:23.932Z,7.03
2018-07-27T07:57:53.227Z,6.97
2018-07-27T08:00:22.953Z,6.23
2018-07-27T08:02:52.291Z,6.30
2018-07-27T08:05:21.543Z,6.30
2018-07-27T08:10:43.732Z,6.53
2018-07-27T08:13:13.062Z,6.33
2018-07-27T08:15:42.386Z,6.60
2018-07-27T08:18:12.425Z,6.13
2018-07-27T08:20:41.770Z,6.47
2018-07-27T08:23:11.245Z,7.13
2018-07-27T08:26:55.115Z,6.73
2018-07-27T08:29:28.791Z,6.30
2018-07-27T08:31:58.451Z,6.97
2018-07-27T08:34:27.813Z,6.90
2018-07-27T08:36:57.134Z,6.90
2018-07-27T08:39:27.424Z,6.60
2018-07-27T08:41:56.505Z,6.03
2018-07-27T08:44:26.832Z,7.00
2018-07-27T08:46:55.953Z,6.20
2018-07-27T08:49:24.977Z,6.60
2018-07-27T08:51:54.058Z,6.78
2018-07-27T08:54:23.118Z,6.80
2018-07-27T08:56:52.189Z,7.55
2018-07-27T08:59:21.234Z,7.15
2018-07-27T09:01:50.341Z,7.22
2018-07-27T09:04:19.441Z,6.10
2018-07-27T09:06:48.581Z,6.62
2018-07-27T09:09:18.605Z,6.15
2018-07-27T09:11:49.781Z,5.65
2018-07-27T09:14:19.071Z,6.17
2018-07-27T09:16:48.179Z,5.90
2018-07-27T09:22:15.109Z,5.97
2018-07-27T09:24:44.451Z,5.35
2018-07-27T09:27:13.738Z,5.08
2018-07-27T09:29:43.013Z,5.22
2018-07-27T09:32:26.282Z,5.55
2018-07-27T09:40:43.549Z,5.67
2018-07-27T09:43:13.066Z,5.65
2018-07-27T09:45:42.371Z,5.83
2018-07-27T09:48:13.775Z,5.30
2018-07-27T09:50:44.078Z,6.45
2018-07-27T09:53:14.030Z,5.95
2018-07-27T09:55:43.649Z,6.05
2018-07-27T09:58:12.345Z,5.70
2018-07-27T10:00:46.966Z,5.47
2018-07-27T10:03:16.279Z,5.55
2018-07-27T10:05:45.743Z,6.10
2018-07-27T10:08:20.520Z,5.42
2018-07-27T10:10:49.835Z,5.42
2018-07-27T10:13:19.138Z,5.65
2018-07-27T10:15:50.024Z,5.12
2018-07-27T10:18:19.294Z,5.12
2018-07-27T10:20:48.032Z,5.90
2018-07-27T10:23:18.978Z,5.62
2018-07-27T10:25:47.685Z,5.58
2018-07-27T10:28:19.024Z,4.97
2018-07-27T10:30:47.794Z,5.12
2018-07-27T10:33:17.626Z,5.25
2018-07-27T10:35:46.966Z,5.42
2018-07-27T10:38:16.258Z,5.40
2018-07-27T10:41:02.823Z,5.33
2018-07-27T10:43:32.545Z,5.20
2018-07-27T10:46:01.393Z,5.22
2018-07-27T10:48:30.149Z,5.33
2018-07-27T10:50:58.924Z,5.87
2018-07-27T10:56:20.958Z,4.87
2018-07-27T10:58:49.714Z,5.00
2018-07-27T11:01:18.461Z,4.90
2018-07-27T11:03:47.211Z,5.20
2018-07-27T11:06:16.396Z,5.20
2018-07-27T11:08:47.220Z,5.28
2018-07-27T11:11:16.568Z,5.50
2018-07-27T11:13:45.764Z,5.30
2018-07-27T11:16:15.104Z,5.20
2018-07-27T11:18:44.458Z,5.60
2018-07-27T11:21:14.208Z,4.90
2018-07-27T11:23:45.682Z,5.25
2018-07-27T11:26:15.230Z,5.03
2018-07-27T11:28:43.988Z,5.28
2018-07-27T11:31:13.121Z,5.00
2018-07-27T11:33:42.652Z,5.10
2018-07-27T11:36:11.975Z,4.80
2018-07-27T11:38:41.250Z,4.78
2018-07-27T11:41:10.525Z,4.97
2018-07-27T11:43:51.758Z,4.92
2018-07-27T11:46:21.118Z,5.22
2018-07-27T11:48:52.799Z,4.83
2018-07-27T11:51:22.528Z,4.72
2018-07-27T11:53:51.857Z,5.10
2018-07-27T11:56:21.205Z,4.45
2018-07-27T11:58:58.632Z,4.72
2018-07-27T12:01:27.857Z,5.10
2018-07-27T12:03:57.211Z,5.58
2018-07-27T12:06:26.497Z,5.70
2018-07-27T12:09:13.210Z,5.10
2018-07-27T12:11:42.626Z,5.20
2018-07-27T12:14:12.030Z,5.40
2018-07-27T12:16:40.648Z,4.90
2018-07-27T12:19:09.459Z,4.60
2018-07-27T12:21:38.832Z,5.50
2018-07-27T12:24:07.971Z,5.12
2018-07-27T12:26:36.831Z,4.78
2018-07-27T12:29:05.567Z,5.58
2018-07-27T12:31:35.071Z,5.55
2018-07-27T12:34:04.316Z,5.92
2018-07-27T12:36:33.078Z,5.45
2018-07-27T12:39:02.500Z,5.60
2018-07-27T12:41:31.744Z,5.40
2018-07-27T12:44:01.022Z,5.30
2018-07-27T12:46:32.120Z,5.70
2018-07-27T12:49:00.906Z,5.62
2018-07-27T12:51:30.171Z,5.72
2018-07-27T12:53:59.423Z,4.95
2018-07-27T12:56:28.931Z,5.65
2018-07-27T12:58:57.631Z,5.92
2018-07-27T13:01:26.898Z,5.08
2018-07-27T13:03:56.423Z,5.25
2018-07-27T13:06:25.899Z,5.40
2018-07-27T13:08:54.836Z,5.37
2018-07-27T13:11:24.008Z,5.30
2018-07-27T13:13:52.836Z,5.08
2018-07-27T13:16:22.091Z,5.17
2018-07-27T13:18:50.892Z,5.00
2018-07-27T13:21:20.406Z,4.65
2018-07-27T13:24:00.247Z,4.80
2018-07-27T13:26:29.677Z,5.30
2018-07-27T13:28:58.774Z,5.37
2018-07-27T13:31:43.430Z,5.12
2018-07-27T13:34:59.712Z,6.67
2018-07-27T13:37:32.630Z,5.17
2018-07-27T13:40:02.716Z,5.05
2018-07-27T13:42:33.439Z,6.08
2018-07-27T13:45:02.718Z,4.87
2018-07-27T13:47:43.326Z,5.53
2018-07-27T13:50:12.158Z,4.97
2018-07-27T13:52:41.409Z,5.10
2018-07-27T13:55:10.077Z,5.17
2018-07-27T13:57:38.778Z,5.10
2018-07-27T14:00:07.953Z,5.45
2018-07-27T14:02:38.981Z,4.80
2018-07-27T14:05:08.618Z,5.90
2018-07-27T14:07:37.657Z,5.30
2018-07-27T14:10:06.438Z,5.20
2018-07-27T14:12:42.130Z,5.05
2018-07-27T14:15:12.825Z,5.10
2018-07-27T14:17:42.201Z,5.05
2018-07-27T14:20:12.271Z,4.90
2018-07-27T14:22:41.082Z,4.53
2018-07-27T14:25:09.784Z,5.00
2018-07-27T14:27:38.910Z,4.40
2018-07-27T14:30:08.390Z,5.20
2018-07-27T14:32:37.494Z,5.35
2018-07-27T14:35:06.897Z,5.10
2018-07-27T14:37:36.577Z,4.25
2018-07-27T14:40:06.130Z,4.80
2018-07-27T14:42:35.195Z,5.33
2018-07-27T14:45:04.573Z,5.05
2018-07-27T14:47:33.585Z,4.83
2018-07-27T14:50:03.064Z,4.28
2018-07-27T14:52:32.176Z,4.37
2018-07-27T14:55:01.687Z,4.97
2018-07-27T14:57:30.882Z,5.00
2018-07-27T15:00:00.157Z,4.35
2018-07-27T15:02:29.222Z,5.10
2018-07-27T15:05:11.254Z,4.97
2018-07-27T15:07:40.353Z,4.70
2018-07-27T15:10:09.480Z,5.15
2018-07-27T15:12:38.527Z,4.12
2018-07-27T15:15:07.667Z,4.83
2018-07-27T15:17:37.889Z,4.62
2018-07-27T15:22:59.703Z,4.47
2018-07-27T15:25:28.940Z,5.12
2018-07-27T15:28:00.067Z,5.30
2018-07-27T15:30:29.346Z,4.55
2018-07-27T15:32:58.675Z,4.85
2018-07-27T15:35:28.194Z,4.87
2018-07-27T15:37:57.478Z,4.50
2018-07-27T15:40:26.779Z,4.83
2018-07-27T15:42:56.750Z,4.58
2018-07-27T15:45:26.054Z,3.83
2018-07-27T15:47:54.803Z,4.90
2018-07-27T15:50:23.707Z,4.50
2018-07-27T15:52:52.479Z,4.40
2018-07-27T15:55:21.204Z,3.80
2018-07-27T15:57:49.921Z,4.70
2018-07-27T16:00:18.665Z,4.95
2018-07-27T16:02:47.569Z,4.00
2018-07-27T16:05:16.320Z,4.70
2018-07-27T16:07:45.090Z,4.70
2018-07-27T16:13:04.191Z,4.25
2018-07-27T16:15:33.012Z,3.95
2018-07-27T16:18:01.751Z,6.62
2018-07-27T16:20:30.506Z,5.35
2018-07-27T16:22:59.221Z,4.95
2018-07-27T16:25:28.006Z,4.25
2018-07-27T16:27:56.716Z,4.45
2018-07-27T16:30:25.364Z,4.53
2018-07-27T16:33:07.349Z,5.15
2018-07-27T16:35:35.993Z,4.80
2018-07-27T16:38:04.651Z,4.78
2018-07-27T16:43:23.397Z,5.25
2018-07-27T16:45:51.985Z,6.28
2018-07-27T16:48:20.633Z,7.03
2018-07-27T16:51:06.952Z,9.78
2018-07-27T16:53:35.539Z,8.20
2018-07-27T16:56:04.160Z,8.40
2018-07-27T16:58:32.804Z,8.65
2018-07-27T17:01:01.389Z,6.50
2018-07-27T17:03:29.984Z,5.45
2018-07-27T17:05:58.684Z,5.28
2018-07-27T17:08:27.733Z,5.28
2018-07-27T17:10:56.794Z,5.12
2018-07-27T17:13:25.876Z,5.00
2018-07-27T17:15:54.967Z,5.00
2018-07-27T17:18:23.528Z,5.08
2018-07-27T17:21:04.226Z,5.17
2018-07-27T17:23:33.304Z,5.45
2018-07-27T17:26:04.257Z,5.20
2018-07-27T17:28:33.469Z,4.90
2018-07-27T17:31:02.630Z,9.05
2018-07-27T17:33:31.722Z,5.25
2018-07-27T17:36:00.794Z,5.15
2018-07-27T17:38:29.883Z,5.30
2018-07-27T17:41:01.070Z,6.17
2018-07-27T17:43:29.661Z,5.65
2018-07-27T17:45:58.776Z,5.28
2018-07-27T17:48:27.882Z,5.80
2018-07-27T17:50:56.906Z,5.42
2018-07-27T17:53:25.969Z,5.62
2018-07-27T17:55:55.047Z,5.90
2018-07-27T17:58:24.170Z,5.72
2018-07-27T18:00:53.225Z,5.85
2018-07-27T18:03:26.439Z,5.87
2018-07-27T18:08:53.079Z,5.28
2018-07-27T18:11:22.907Z,5.58
2018-07-27T18:13:52.001Z,6.03
2018-07-27T18:16:21.125Z,6.28
2018-07-27T18:18:50.208Z,5.80
2018-07-27T18:21:19.290Z,5.90
2018-07-27T18:23:48.367Z,5.87
2018-07-27T18:26:17.398Z,6.20
2018-07-27T18:28:46.733Z,5.78
2018-07-27T18:31:15.829Z,6.47
2018-07-27T18:33:45.006Z,6.70
2018-07-27T18:36:14.333Z,6.12
2018-07-27T18:38:43.370Z,6.55
2018-07-27T18:41:15.420Z,6.40
2018-07-27T18:43:44.530Z,5.37
2018-07-27T18:46:13.661Z,6.22
2018-07-27T18:48:42.765Z,6.25
2018-07-27T18:51:11.825Z,6.17
2018-07-27T18:53:40.910Z,6.80
2018-07-27T18:59:02.927Z,6.60
2018-07-27T19:01:32.019Z,6.33
2018-07-27T19:04:01.092Z,6.40
2018-07-27T19:06:30.181Z,7.25
2018-07-27T19:08:59.202Z,7.45
2018-07-27T19:11:28.293Z,7.03
2018-07-27T19:13:57.353Z,6.80
2018-07-27T19:16:26.429Z,7.30
2018-07-27T19:18:55.594Z,5.83
2018-07-27T19:21:24.681Z,7.00
2018-07-27T19:23:53.913Z,6.67
2018-07-27T19:26:22.937Z,6.80
2018-07-27T19:28:52.020Z,6.30
2018-07-27T19:31:21.066Z,6.80
2018-07-27T19:33:50.129Z,6.33
2018-07-27T19:36:19.205Z,6.57
2018-07-27T19:38:48.221Z,6.70
2018-07-27T19:41:17.266Z,6.40
2018-07-27T19:43:46.310Z,6.27
2018-07-27T19:46:15.326Z,6.33
2018-07-27T19:48:44.397Z,6.53
2018-07-27T19:51:13.433Z,5.23
2018-07-27T19:53:42.572Z,6.17
2018-07-27T19:56:11.669Z,6.43
2018-07-27T19:58:40.673Z,6.17
2018-07-27T20:01:09.757Z,6.20
2018-07-27T20:03:38.839Z,6.10
2018-07-27T20:06:07.919Z,6.03
2018-07-27T20:08:37.006Z,6.97
2018-07-27T20:11:06.078Z,6.90
2018-07-27T20:13:35.146Z,6.13
2018-07-27T20:16:04.262Z,6.00
2018-07-27T20:18:33.318Z,6.57
2018-07-27T20:21:02.362Z,6.23
2018-07-27T20:23:31.401Z,6.37
2018-07-27T20:26:00.523Z,6.47
2018-07-27T20:28:29.538Z,7.53
2018-07-27T20:30:58.592Z,6.30
2018-07-27T20:33:27.659Z,6.17
2018-07-27T20:35:56.777Z,6.20
2018-07-27T20:38:25.393Z,6.40
2018-07-27T20:40:54.684Z,5.87
2018-07-27T20:43:23.903Z,6.30
2018-07-27T20:45:52.909Z,6.27
2018-07-27T20:48:21.970Z,6.70
2018-07-27T20:50:51.022Z,6.50
2018-07-27T20:53:37.921Z,6.50
2018-07-27T20:56:06.966Z,6.77
2018-07-27T20:58:36.007Z,6.47
2018-07-27T21:01:05.244Z,6.83
2018-07-27T21:03:34.243Z,6.53
2018-07-27T21:06:03.289Z,6.57
2018-07-27T21:08:32.310Z,6.67
2018-07-27T21:11:01.350Z,6.50
2018-07-27T21:13:30.423Z,6.60
2018-07-27T21:15:59.489Z,6.47
2018-07-27T21:18:28.602Z,6.03
2018-07-27T21:20:57.666Z,6.27
2018-07-27T21:23:26.718Z,6.73
2018-07-27T21:25:56.028Z,6.80
2018-07-27T21:28:25.032Z,6.10
2018-07-27T21:30:54.106Z,6.03
2018-07-27T21:33:23.149Z,6.83
2018-07-27T21:35:52.249Z,6.50
2018-07-27T21:38:21.313Z,6.33
2018-07-27T21:40:50.398Z,6.30
2018-07-27T21:43:19.529Z,5.67
2018-07-27T21:45:48.576Z,6.10
2018-07-27T21:48:17.624Z,6.70
2018-07-27T21:50:46.702Z,6.63
2018-07-27T21:53:15.725Z,7.23
2018-07-27T21:55:44.777Z,7.17
2018-07-27T21:58:13.821Z,6.63
2018-07-27T22:00:42.896Z,7.50
2018-07-27T22:03:21.909Z,6.97
2018-07-27T22:05:50.988Z,6.47
2018-07-27T22:08:20.075Z,6.10
2018-07-27T22:10:49.095Z,7.07
2018-07-27T22:13:18.289Z,7.40
2018-07-27T22:15:47.282Z,7.73
2018-07-27T22:18:16.317Z,7.53
2018-07-27T22:20:45.380Z,6.53
2018-07-27T22:23:14.405Z,7.50
2018-07-27T22:25:43.482Z,7.70
2018-07-27T22:28:12.490Z,7.60
2018-07-27T22:30:41.571Z,7.20
2018-07-27T22:33:10.625Z,7.27
2018-07-27T22:35:39.649Z,6.90
2018-07-27T22:38:08.758Z,7.07
2018-07-27T22:40:37.861Z,7.23
2018-07-27T22:43:07.009Z,8.67
2018-07-27T22:45:36.042Z,6.90
2018-07-27T22:48:05.478Z,7.87
2018-07-27T22:50:34.566Z,7.57
2018-07-27T22:53:03.585Z,7.73
2018-07-27T22:55:32.653Z,7.83
2018-07-27T22:58:01.689Z,7.60
2018-07-27T23:00:30.784Z,7.23
2018-07-27T23:02:59.822Z,7.40
2018-07-27T23:05:28.834Z,7.30
2018-07-27T23:07:57.908Z,7.77
2018-07-27T23:10:26.913Z,7.87
2018-07-27T23:12:56.169Z,7.63
2018-07-27T23:15:25.254Z,8.17
2018-07-27T23:17:54.257Z,6.83
2018-07-27T23:20:23.418Z,7.33
2018-07-27T23:22:52.450Z,7.80
2018-07-27T23:25:21.544Z,7.57
2018-07-27T23:27:50.638Z,7.10
2018-07-27T23:30:19.652Z,8.17
2018-07-27T23:32:48.701Z,7.33
2018-07-27T23:35:17.776Z,7.87
2018-07-27T23:37:46.860Z,7.67
2018-07-27T23:40:16.110Z,7.97
2018-07-27T23:42:45.154Z,7.87
2018-07-27T23:48:30.398Z,7.20
2018-07-27T23:50:59.461Z,8.77
2018-07-27T23:53:28.553Z,8.03
2018-07-27T23:55:57.605Z,7.87
2018-07-27T23:58:26.642Z,7.57
